Time;durP1;ratioP1;P1;durP2;ratioP2;P2;SDS_P1;SDS_P2;PMS_P1;PMS_P2;Temp;Humidity;BMP_temperature;BMP_pressure;BME280_temperature;BME280_humidity;BME280_pressure;Samples;Min_cycle;Max_cycle;Signal;HPM_P1;HPM_P2
2021/12/03 00:00:30;;;;;;;4.30;1.82;;;;;;;;;;7493333;39;21513;-67
2021/12/03 00:05:36;;;;;;;12.05;1.25;;;;;;;;;;7493189;39;21270;-67
2021/12/03 00:10:42;;;;;;;4.90;1.90;;;;;;;;;;7493242;39;21978;-68
2021/12/03 00:15:47;;;;;;;8.10;1.55;;;;;;;;;;7493017;39;21506;-68
2021/12/03 00:20:52;;;;;;;5.17;1.50;;;;;;;;;;7493014;39;21467;-68
2021/12/03 00:26:00;;;;;;;4.17;1.50;;;;;;;;;;7494226;39;21517;-68
2021/12/03 00:31:05;;;;;;;7.83;1.80;;;;;;;;;;7493386;39;21513;-68
2021/12/03 00:36:10;;;;;;;6.43;1.50;;;;;;;;;;7494034;39;21427;-67
2021/12/03 00:41:19;;;;;;;7.28;1.65;;;;;;;;;;7492827;39;21508;-68
2021/12/03 00:46:27;;;;;;;6.12;1.95;;;;;;;;;;7491958;39;20901;-67
2021/12/03 00:51:32;;;;;;;10.68;2.22;;;;;;;;;;7492715;39;21473;-67
2021/12/03 00:56:37;;;;;;;7.72;1.87;;;;;;;;;;7492477;39;21457;-67
2021/12/03 01:01:41;;;;;;;17.07;2.30;;;;;;;;;;7492828;39;21486;-67
2021/12/03 01:06:47;;;;;;;11.05;2.15;;;;;;;;;;7492281;39;21506;-67
2021/12/03 01:11:52;;;;;;;8.68;1.77;;;;;;;;;;7492549;39;21825;-67
2021/12/03 01:16:57;;;;;;;9.48;2.25;;;;;;;;;;7491829;39;21339;-66
2021/12/03 01:22:03;;;;;;;6.90;1.57;;;;;;;;;;7491946;39;21437;-67
2021/12/03 01:27:08;;;;;;;6.53;1.47;;;;;;;;;;7492224;39;21463;-66
2021/12/03 01:32:13;;;;;;;9.65;1.77;;;;;;;;;;7491120;39;21510;-67
2021/12/03 01:37:17;;;;;;;7.72;1.62;;;;;;;;;;7491885;39;20415;-65
2021/12/03 01:42:22;;;;;;;5.85;1.95;;;;;;;;;;7491381;39;21523;-67
2021/12/03 01:47:27;;;;;;;5.83;1.70;;;;;;;;;;7491606;39;21518;-67
2021/12/03 01:52:32;;;;;;;7.57;1.57;;;;;;;;;;7491757;39;21653;-67
2021/12/03 01:57:37;;;;;;;5.58;1.80;;;;;;;;;;7491642;39;21541;-66
2021/12/03 02:02:42;;;;;;;5.40;1.70;;;;;;;;;;7491631;39;21744;-67
2021/12/03 02:07:47;;;;;;;6.15;2.33;;;;;;;;;;7491767;39;21572;-66
2021/12/03 02:12:53;;;;;;;7.00;2.05;;;;;;;;;;7491513;39;21760;-66
2021/12/03 02:17:58;;;;;;;7.67;1.83;;;;;;;;;;7491774;39;21924;-67
2021/12/03 02:23:02;;;;;;;8.60;2.37;;;;;;;;;;7491652;39;21510;-67
2021/12/03 02:28:07;;;;;;;6.87;2.47;;;;;;;;;;7490968;39;20193;-66
2021/12/03 02:33:13;;;;;;;5.90;2.47;;;;;;;;;;7491975;39;21552;-67
2021/12/03 02:38:19;;;;;;;9.40;2.65;;;;;;;;;;7492272;39;20165;-67
2021/12/03 02:43:24;;;;;;;8.87;2.37;;;;;;;;;;7492282;39;21412;-67
2021/12/03 02:48:31;;;;;;;5.55;2.25;;;;;;;;;;7492295;39;20235;-66
2021/12/03 02:53:36;;;;;;;5.83;2.33;;;;;;;;;;7492878;39;21477;-66
2021/12/03 02:58:41;;;;;;;6.42;2.52;;;;;;;;;;7491912;39;21456;-67
2021/12/03 03:03:46;;;;;;;7.83;2.35;;;;;;;;;;7491632;39;21475;-65
2021/12/03 03:08:50;;;;;;;6.60;2.30;;;;;;;;;;7492470;39;20262;-67
2021/12/03 03:13:55;;;;;;;8.60;2.62;;;;;;;;;;7491953;39;21512;-67
2021/12/03 03:19:00;;;;;;;17.00;3.00;;;;;;;;;;7493231;39;21456;-67
2021/12/03 03:24:07;;;;;;;9.05;3.10;;;;;;;;;;7492889;39;21476;-69
2021/12/03 03:29:13;;;;;;;6.90;2.60;;;;;;;;;;7493295;39;20169;-68
2021/12/03 03:34:18;;;;;;;10.20;2.70;;;;;;;;;;7493142;39;21481;-69
2021/12/03 03:39:23;;;;;;;5.75;2.58;;;;;;;;;;7492055;39;21534;-66
2021/12/03 03:44:28;;;;;;;6.67;2.83;;;;;;;;;;7492444;39;21455;-67
2021/12/03 03:49:33;;;;;;;5.83;2.65;;;;;;;;;;7492002;39;21834;-67
2021/12/03 03:54:38;;;;;;;6.47;2.90;;;;;;;;;;7491926;39;21048;-67
2021/12/03 03:59:42;;;;;;;7.27;2.67;;;;;;;;;;7491532;39;21503;-64
2021/12/03 04:04:47;;;;;;;9.65;2.67;;;;;;;;;;7491721;39;20337;-67
2021/12/03 04:09:52;;;;;;;17.37;3.80;;;;;;;;;;7492097;39;21448;-67
2021/12/03 04:14:59;;;;;;;7.60;3.00;;;;;;;;;;7491493;39;21534;-67
2021/12/03 04:20:05;;;;;;;7.28;2.72;;;;;;;;;;7492210;39;21503;-67
2021/12/03 04:25:11;;;;;;;12.77;3.23;;;;;;;;;;7491426;39;21661;-66
2021/12/03 04:30:17;;;;;;;7.08;2.90;;;;;;;;;;7492692;39;21501;-67
2021/12/03 04:35:22;;;;;;;12.10;3.80;;;;;;;;;;7492387;39;21466;-66
2021/12/03 04:40:28;;;;;;;10.63;3.02;;;;;;;;;;7491833;39;21440;-68
2021/12/03 04:45:33;;;;;;;12.55;3.40;;;;;;;;;;7491398;39;20226;-66
2021/12/03 04:50:39;;;;;;;13.20;3.43;;;;;;;;;;7492309;39;21520;-67
2021/12/03 04:55:44;;;;;;;17.00;3.52;;;;;;;;;;7492166;39;21892;-67
2021/12/03 05:01:09;;;;;;;8.20;3.02;;;;;;;;;;7490891;39;21173;-66
2021/12/03 05:11:38;;;;;;;11.35;3.67;;;;;;;;;;7491864;39;21739;-67
2021/12/03 05:16:45;;;;;;;7.87;2.63;;;;;;;;;;7491451;39;20217;-67
2021/12/03 05:21:49;;;;;;;7.03;2.92;;;;;;;;;;7491113;39;21454;-69
2021/12/03 05:26:54;;;;;;;11.45;3.20;;;;;;;;;;7492830;39;21528;-68
2021/12/03 05:31:59;;;;;;;13.60;3.55;;;;;;;;;;7492218;39;21472;-67
2021/12/03 05:37:04;;;;;;;9.60;3.67;;;;;;;;;;7492342;39;21475;-68
2021/12/03 05:42:09;;;;;;;11.23;3.83;;;;;;;;;;7492420;39;21643;-66
2021/12/03 05:47:14;;;;;;;9.48;3.80;;;;;;;;;;7490458;39;21490;-68
2021/12/03 05:52:19;;;;;;;12.65;3.83;;;;;;;;;;7491543;39;21973;-68
2021/12/03 05:57:24;;;;;;;16.25;4.58;;;;;;;;;;7491322;39;21523;-67
2021/12/03 06:02:28;;;;;;;12.90;3.87;;;;;;;;;;7492084;39;21816;-68
2021/12/03 06:07:33;;;;;;;15.83;4.27;;;;;;;;;;7492379;39;21445;-68
2021/12/03 06:12:38;;;;;;;17.40;5.50;;;;;;;;;;7493411;39;21488;-69
2021/12/03 06:17:43;;;;;;;11.70;4.10;;;;;;;;;;7492764;39;21480;-68
2021/12/03 06:22:48;;;;;;;13.62;4.58;;;;;;;;;;7492400;39;21510;-68
2021/12/03 06:28:26;;;;;;;15.05;5.05;;;;;;;;;;7494015;39;20204;-68
2021/12/03 06:33:00;;;;;;;11.03;3.70;;;;;;;;;;7493832;39;21519;-68
2021/12/03 06:38:05;;;;;;;17.00;5.25;;;;;;;;;;7493150;39;20990;-67
2021/12/03 06:43:10;;;;;;;21.55;5.03;;;;;;;;;;7493046;39;21476;-67
2021/12/03 06:48:16;;;;;;;16.12;5.75;;;;;;;;;;7492463;39;21471;-67
2021/12/03 06:53:24;;;;;;;17.02;5.55;;;;;;;;;;7490300;39;21825;-68
2021/12/03 06:58:27;;;;;;;21.47;6.17;;;;;;;;;;7491368;39;20793;-67
2021/12/03 07:03:32;;;;;;;27.87;7.03;;;;;;;;;;7489402;39;21540;-66
2021/12/03 07:08:37;;;;;;;23.18;7.90;;;;;;;;;;7490614;39;20222;-66
2021/12/03 07:13:42;;;;;;;19.50;6.40;;;;;;;;;;7489866;39;21474;-65
2021/12/03 07:18:47;;;;;;;13.10;5.85;;;;;;;;;;7486622;39;23610;-65
2021/12/03 07:23:52;;;;;;;14.63;6.00;;;;;;;;;;7490573;39;21493;-65
2021/12/03 07:28:58;;;;;;;18.48;5.60;;;;;;;;;;7492703;39;21498;-68
2021/12/03 07:34:02;;;;;;;20.10;5.30;;;;;;;;;;7492528;39;21510;-66
2021/12/03 07:39:07;;;;;;;14.83;6.03;;;;;;;;;;7491297;39;21506;-67
2021/12/03 07:44:12;;;;;;;17.62;7.47;;;;;;;;;;7492156;39;21449;-68
2021/12/03 07:49:17;;;;;;;21.57;6.07;;;;;;;;;;7492074;39;21691;-69
2021/12/03 07:54:22;;;;;;;20.32;6.20;;;;;;;;;;7489890;39;21094;-68
2021/12/03 07:59:27;;;;;;;20.40;6.87;;;;;;;;;;7490583;39;20233;-67
2021/12/03 08:04:32;;;;;;;15.43;6.17;;;;;;;;;;7491446;39;21973;-68
2021/12/03 08:09:37;;;;;;;12.53;5.45;;;;;;;;;;7492263;39;21496;-68
2021/12/03 08:14:42;;;;;;;10.07;4.47;;;;;;;;;;7492749;39;21466;-69
2021/12/03 08:19:47;;;;;;;23.87;5.42;;;;;;;;;;7493808;39;20263;-68
2021/12/03 08:24:52;;;;;;;14.60;5.35;;;;;;;;;;7491977;39;21518;-66
2021/12/03 08:29:57;;;;;;;19.00;6.33;;;;;;;;;;7492033;39;21467;-68
2021/12/03 08:35:02;;;;;;;14.63;6.62;;;;;;;;;;7491781;39;21443;-69
2021/12/03 08:40:07;;;;;;;16.20;5.40;;;;;;;;;;7491784;39;21680;-69
2021/12/03 08:45:12;;;;;;;13.18;5.80;;;;;;;;;;7493925;39;21475;-68
2021/12/03 08:50:25;;;;;;;13.13;5.78;;;;;;;;;;7493073;39;21434;-70
2021/12/03 08:55:23;;;;;;;15.98;6.12;;;;;;;;;;7492552;39;21496;-68
2021/12/03 09:00:30;;;;;;;19.45;6.05;;;;;;;;;;7491886;39;20247;-71
2021/12/03 09:05:37;;;;;;;14.03;6.23;;;;;;;;;;7492188;39;20910;-70
2021/12/03 09:10:42;;;;;;;17.45;7.55;;;;;;;;;;7491656;39;21453;-68
2021/12/03 09:26:39;;;;;;;20.57;6.78;;;;;;;;;;7493515;39;21527;-69
2021/12/03 09:31:44;;;;;;;13.40;5.13;;;;;;;;;;7493825;39;21501;-71
2021/12/03 09:36:49;;;;;;;16.07;5.72;;;;;;;;;;7493491;39;21650;-70
2021/12/03 09:41:55;;;;;;;16.70;7.17;;;;;;;;;;7494199;39;21492;-69
2021/12/03 09:47:00;;;;;;;11.90;5.90;;;;;;;;;;7494226;39;21521;-69
2021/12/03 10:03:03;;;;;;;17.25;6.70;;;;;;;;;;7490831;39;21700;-68
2021/12/03 10:13:32;;;;;;;16.35;5.85;;;;;;;;;;7490353;39;21495;-69
2021/12/03 10:41:33;;;;;;;19.25;7.33;;;;;;;;;;7490470;39;21474;-68
2021/12/03 10:51:55;;;;;;;18.90;6.80;;;;;;;;;;7490704;39;21496;-68
2021/12/03 11:29:51;;;;;;;23.20;9.90;;;;;;;;;;7493554;39;21294;-69
2021/12/03 11:45:45;;;;;;;22.23;9.47;;;;;;;;;;7493223;39;21116;-70
2021/12/03 14:57:27;;;;;;;29.00;10.63;;;;;;;;;;7489012;39;20173;-67
2021/12/03 15:07:52;;;;;;;26.52;9.48;;;;;;;;;;7488262;39;20260;-69
2021/12/03 16:12:24;;;;;;;22.85;10.80;;;;;;;;;;7488113;39;21209;-67
2021/12/03 16:45:09;;;;;;;28.70;12.23;;;;;;;;;;7488345;39;20800;-70
2021/12/03 16:54:56;;;;;;;19.82;7.72;;;;;;;;;;7487838;39;22235;-69
2021/12/03 17:00:12;;;;;;;22.40;8.83;;;;;;;;;;7488424;39;20376;-68
2021/12/03 18:58:12;;;;;;;24.03;9.90;;;;;;;;;;7489026;39;20767;-66
2021/12/03 19:14:07;;;;;;;27.37;9.50;;;;;;;;;;7489302;39;21505;-66
2021/12/03 19:19:15;;;;;;;23.40;9.05;;;;;;;;;;7488521;39;20202;-66
2021/12/03 19:24:20;;;;;;;25.63;9.23;;;;;;;;;;7487907;39;21884;-66
2021/12/03 19:29:25;;;;;;;25.12;9.48;;;;;;;;;;7488687;39;20222;-66
2021/12/03 19:34:30;;;;;;;22.00;9.23;;;;;;;;;;7487841;39;21505;-68
2021/12/03 19:39:38;;;;;;;24.57;9.35;;;;;;;;;;7488601;39;20399;-66
2021/12/03 19:55:31;;;;;;;18.52;7.37;;;;;;;;;;7488036;39;21530;-68
2021/12/03 20:00:37;;;;;;;20.55;8.33;;;;;;;;;;7487999;39;22079;-66
2021/12/03 20:05:42;;;;;;;18.10;7.78;;;;;;;;;;7487121;39;20211;-66
2021/12/03 20:10:49;;;;;;;19.30;8.05;;;;;;;;;;7487890;39;21485;-66
2021/12/03 20:21:19;;;;;;;21.75;7.78;;;;;;;;;;7487635;39;21361;-68
2021/12/03 20:32:10;;;;;;;21.97;9.03;;;;;;;;;;7488090;39;21526;-67
2021/12/03 21:09:27;;;;;;;21.50;7.33;;;;;;;;;;7488398;39;20191;-68
2021/12/03 21:14:34;;;;;;;15.78;6.72;;;;;;;;;;7487730;39;21521;-68
2021/12/03 21:19:41;;;;;;;19.12;7.50;;;;;;;;;;7487579;39;21874;-66
2021/12/03 21:24:48;;;;;;;18.17;7.60;;;;;;;;;;7488145;39;21833;-66
2021/12/03 21:30:02;;;;;;;18.32;7.87;;;;;;;;;;7487602;39;20373;-66
2021/12/03 21:45:49;;;;;;;19.55;7.87;;;;;;;;;;7487176;39;21675;-66
2021/12/03 21:50:54;;;;;;;22.10;8.73;;;;;;;;;;7486323;39;21468;-69
2021/12/03 21:55:59;;;;;;;21.65;8.55;;;;;;;;;;7489226;39;21552;-67
2021/12/03 22:01:04;;;;;;;23.37;9.03;;;;;;;;;;7488061;39;21521;-66
2021/12/03 22:06:09;;;;;;;23.18;8.68;;;;;;;;;;7487277;39;21618;-66
2021/12/03 22:11:13;;;;;;;25.65;9.25;;;;;;;;;;7487648;39;21467;-66
2021/12/03 22:16:19;;;;;;;20.72;7.00;;;;;;;;;;7488418;39;21513;-66
2021/12/03 22:21:24;;;;;;;23.80;9.18;;;;;;;;;;7488099;39;21485;-65
2021/12/03 22:26:29;;;;;;;22.80;8.97;;;;;;;;;;7489029;39;20267;-66
2021/12/03 22:31:34;;;;;;;25.72;9.75;;;;;;;;;;7489204;39;21530;-66
2021/12/03 22:36:39;;;;;;;25.37;9.83;;;;;;;;;;7488536;39;20233;-66
2021/12/03 22:41:47;;;;;;;25.82;9.65;;;;;;;;;;7488342;39;21462;-65
2021/12/03 22:52:17;;;;;;;26.30;9.30;;;;;;;;;;7488770;39;21695;-63
2021/12/03 22:57:23;;;;;;;27.93;10.55;;;;;;;;;;7489339;39;20858;-63
2021/12/03 23:02:28;;;;;;;23.25;9.30;;;;;;;;;;7488581;39;21694;-66
2021/12/03 23:07:33;;;;;;;26.23;10.35;;;;;;;;;;7489829;39;20207;-66
2021/12/03 23:12:37;;;;;;;26.95;9.65;;;;;;;;;;7489041;39;21617;-66
2021/12/03 23:17:42;;;;;;;23.77;10.37;;;;;;;;;;7488745;39;21565;-64
2021/12/03 23:22:47;;;;;;;24.40;9.80;;;;;;;;;;7489884;39;21470;-63
2021/12/03 23:27:52;;;;;;;25.37;10.05;;;;;;;;;;7488626;39;20273;-63
2021/12/03 23:32:57;;;;;;;22.65;8.98;;;;;;;;;;7489075;39;21837;-64
2021/12/03 23:38:02;;;;;;;23.75;10.15;;;;;;;;;;7488521;39;21453;-65
2021/12/03 23:43:07;;;;;;;24.50;10.37;;;;;;;;;;7489669;39;21466;-66
2021/12/03 23:48:12;;;;;;;22.55;9.23;;;;;;;;;;7488866;39;20160;-66
2021/12/03 23:53:17;;;;;;;28.60;11.68;;;;;;;;;;7492677;39;21505;-68
2021/12/03 23:58:22;;;;;;;30.82;12.23;;;;;;;;;;7493525;39;21508;-65
